createdAt,value
2023-04-16T00:03:21.438Z,26.47
2023-04-16T00:08:26.906Z,26.20
2023-04-16T00:13:28.670Z,26.23
2023-04-16T00:18:30.848Z,29.17
2023-04-16T00:23:32.674Z,28.27
2023-04-16T00:28:34.476Z,29.57
2023-04-16T00:33:36.244Z,28.00
2023-04-16T00:38:38.083Z,29.60
2023-04-16T00:43:39.854Z,27.47
2023-04-16T00:48:44.701Z,27.17
2023-04-16T00:53:47.749Z,26.53
2023-04-16T00:58:49.923Z,25.30
2023-04-16T01:03:51.796Z,27.43
2023-04-16T01:08:53.807Z,26.97
2023-04-16T01:13:55.669Z,25.70
2023-04-16T01:18:57.486Z,25.43
2023-04-16T01:24:04.632Z,25.80
2023-04-16T01:29:06.568Z,26.93
2023-04-16T01:34:08.401Z,26.00
2023-04-16T01:39:13.709Z,27.47
2023-04-16T01:44:15.557Z,27.37
2023-04-16T01:49:17.392Z,26.20
2023-04-16T01:54:19.107Z,25.03
2023-04-16T01:59:20.934Z,25.23
2023-04-16T02:04:22.730Z,24.93
2023-04-16T02:09:24.642Z,24.90
2023-04-16T02:14:26.375Z,24.30
2023-04-16T02:19:28.135Z,26.33
2023-04-16T02:24:30.291Z,26.23
2023-04-16T02:29:32.021Z,25.00
2023-04-16T02:34:34.601Z,27.07
2023-04-16T02:39:36.377Z,26.00
2023-04-16T02:44:38.121Z,26.97
2023-04-16T02:49:39.929Z,28.20
2023-04-16T02:54:41.666Z,29.00
2023-04-16T02:59:43.473Z,27.53
2023-04-16T03:04:45.523Z,29.10
2023-04-16T03:09:47.455Z,30.70
2023-04-16T03:14:54.306Z,30.10
2023-04-16T03:19:56.209Z,30.00
2023-04-16T03:24:57.955Z,30.53
2023-04-16T03:30:00.192Z,29.40
2023-04-16T03:35:02.026Z,30.03
2023-04-16T03:40:05.886Z,28.20
2023-04-16T03:45:09.448Z,29.30
2023-04-16T03:50:11.651Z,27.00
2023-04-16T03:55:13.885Z,26.30
2023-04-16T04:00:15.689Z,22.63
2023-04-16T04:05:17.456Z,26.90
2023-04-16T04:10:19.191Z,27.13
2023-04-16T04:15:20.998Z,27.77
2023-04-16T04:20:23.484Z,29.60
2023-04-16T04:25:25.577Z,29.00
2023-04-16T04:30:28.494Z,29.60
2023-04-16T04:35:30.347Z,30.20
2023-04-16T04:40:32.418Z,30.70
2023-04-16T04:45:34.224Z,30.10
2023-04-16T04:50:36.823Z,30.30
2023-04-16T04:55:39.884Z,28.77
2023-04-16T05:00:42.852Z,30.20
2023-04-16T05:05:44.648Z,29.83
2023-04-16T05:10:46.424Z,28.37
2023-04-16T05:15:48.173Z,29.83
2023-04-16T05:20:49.893Z,27.57
2023-04-16T05:25:51.665Z,30.10
2023-04-16T05:30:53.486Z,27.73
2023-04-16T05:35:55.266Z,26.90
2023-04-16T05:40:59.043Z,26.60
2023-04-16T05:46:00.913Z,25.90
2023-04-16T05:51:02.729Z,24.43
2023-04-16T05:56:04.814Z,24.27
2023-04-16T06:01:07.469Z,23.43
2023-04-16T06:06:09.388Z,22.70
2023-04-16T06:11:11.441Z,22.83
2023-04-16T06:16:13.265Z,24.47
2023-04-16T06:21:16.126Z,23.17
2023-04-16T06:26:18.255Z,22.67
2023-04-16T06:31:20.604Z,22.60
2023-04-16T06:36:22.411Z,22.73
2023-04-16T06:41:25.703Z,23.27
2023-04-16T06:46:27.603Z,24.00
2023-04-16T06:51:29.591Z,24.97
2023-04-16T06:56:32.183Z,25.90
2023-04-16T07:01:34.457Z,24.57
2023-04-16T07:06:36.356Z,26.10
2023-04-16T07:11:38.268Z,26.50
2023-04-16T07:16:40.621Z,25.57
2023-04-16T07:21:43.636Z,25.20
2023-04-16T07:26:45.401Z,22.80
2023-04-16T07:31:47.319Z,24.23
2023-04-16T07:36:49.179Z,24.30
2023-04-16T07:41:51.011Z,23.53
2023-04-16T07:46:52.919Z,22.53
2023-04-16T07:51:54.835Z,22.00
2023-04-16T07:56:56.620Z,21.17
2023-04-16T08:01:58.667Z,22.67
2023-04-16T08:07:00.518Z,21.00
2023-04-16T08:12:03.739Z,21.70
2023-04-16T08:17:05.721Z,22.30
2023-04-16T08:22:07.759Z,20.83
2023-04-16T08:27:18.422Z,20.80
2023-04-16T08:32:21.352Z,19.53
2023-04-16T08:37:23.140Z,19.37
2023-04-16T08:42:37.469Z,17.97
2023-04-16T08:47:42.980Z,18.33
2023-04-16T08:52:59.926Z,17.70
2023-04-16T08:58:20.980Z,22.67
2023-04-16T09:03:23.088Z,19.03
2023-04-16T09:08:26.518Z,18.37
2023-04-16T09:13:28.902Z,18.20
2023-04-16T09:18:31.323Z,18.87
2023-04-16T09:23:33.280Z,18.30
2023-04-16T09:28:48.178Z,17.27
2023-04-16T09:34:16.428Z,16.53
2023-04-16T09:39:23.403Z,16.50
2023-04-16T09:44:39.364Z,18.43
2023-04-16T09:49:43.188Z,17.20
2023-04-16T09:54:53.891Z,17.97
2023-04-16T10:00:05.452Z,20.40
2023-04-16T10:05:07.692Z,21.83
2023-04-16T10:10:10.571Z,22.40
2023-04-16T10:15:12.377Z,23.43
2023-04-16T10:20:17.280Z,24.47
2023-04-16T10:25:20.117Z,25.07
2023-04-16T10:30:23.145Z,26.00
2023-04-16T10:35:26.058Z,25.07
2023-04-16T10:40:28.148Z,24.83
2023-04-16T10:45:38.322Z,23.63
2023-04-16T10:50:41.343Z,24.03
2023-04-16T10:56:13.995Z,24.37
2023-04-16T11:01:16.794Z,25.87
2023-04-16T11:06:27.589Z,22.77
2023-04-16T11:11:39.524Z,21.77
2023-04-16T11:16:41.936Z,22.10
2023-04-16T11:21:45.238Z,18.90
2023-04-16T11:26:51.987Z,17.53
2023-04-16T11:31:55.247Z,16.50
2023-04-16T11:36:57.213Z,17.10
2023-04-16T11:41:58.991Z,17.67
2023-04-16T11:47:07.689Z,17.10
2023-04-16T11:52:09.649Z,15.60
2023-04-16T11:57:11.480Z,14.80
2023-04-16T12:07:15.192Z,12.53
2023-04-16T12:12:30.451Z,13.83
2023-04-16T12:17:35.361Z,13.47
2023-04-16T12:22:40.982Z,12.70
2023-04-16T12:27:55.938Z,12.07
2023-04-16T12:33:19.210Z,11.87
2023-04-16T12:38:24.104Z,11.73
2023-04-16T12:43:26.737Z,11.70
2023-04-16T12:48:28.728Z,11.17
2023-04-16T12:53:30.590Z,13.10
2023-04-16T12:58:32.407Z,10.50
2023-04-16T13:03:37.183Z,11.20
2023-04-16T13:08:39.234Z,10.70
2023-04-16T13:13:41.128Z,10.50
2023-04-16T13:18:42.955Z,11.37
2023-04-16T13:23:44.818Z,11.43
2023-04-16T13:28:46.694Z,11.60
2023-04-16T13:33:50.282Z,11.47
2023-04-16T13:38:52.056Z,11.73
2023-04-16T13:43:54.720Z,11.43
2023-04-16T13:48:56.620Z,9.67
2023-04-16T13:53:58.460Z,10.70
2023-04-16T13:59:00.944Z,10.30
2023-04-16T14:04:06.654Z,11.17
2023-04-16T14:09:10.740Z,10.10
2023-04-16T14:14:12.940Z,9.90
2023-04-16T14:19:14.807Z,10.07
2023-04-16T14:24:16.560Z,10.20
2023-04-16T14:29:18.316Z,9.57
2023-04-16T14:34:20.077Z,10.00
2023-04-16T14:39:21.840Z,9.47
2023-04-16T14:44:23.766Z,8.17
2023-04-16T14:49:26.370Z,7.00
2023-04-16T14:54:28.577Z,6.10
2023-04-16T14:59:31.463Z,6.10
2023-04-16T15:04:33.555Z,6.30
2023-04-16T15:09:35.588Z,7.07
2023-04-16T15:14:37.365Z,6.83
2023-04-16T15:19:39.164Z,6.67
2023-04-16T15:24:41.163Z,7.17
2023-04-16T15:29:46.390Z,6.53
2023-04-16T15:34:48.162Z,8.00
2023-04-16T15:39:49.966Z,7.90
2023-04-16T15:44:51.721Z,7.30
2023-04-16T15:49:53.529Z,7.70
2023-04-16T15:54:55.813Z,8.37
2023-04-16T16:00:05.794Z,8.50
2023-04-16T16:05:16.740Z,9.70
2023-04-16T16:10:20.166Z,10.17
2023-04-16T16:15:21.969Z,10.40
2023-04-16T16:20:25.584Z,10.03
2023-04-16T16:25:27.696Z,10.43
2023-04-16T16:30:29.515Z,11.03
2023-04-16T16:35:31.704Z,11.40
2023-04-16T16:40:33.643Z,10.40
2023-04-16T16:45:35.397Z,12.13
2023-04-16T16:50:37.215Z,11.67
2023-04-16T16:55:39.134Z,10.90
2023-04-16T17:00:41.540Z,10.77
2023-04-16T17:05:43.328Z,10.10
2023-04-16T17:10:45.204Z,10.67
2023-04-16T17:15:47.487Z,11.90
2023-04-16T17:20:49.316Z,11.37
2023-04-16T17:25:51.257Z,11.90
2023-04-16T17:30:57.332Z,12.77
2023-04-16T17:35:59.128Z,10.40
2023-04-16T17:41:00.906Z,9.70
2023-04-16T17:46:02.759Z,10.37
2023-04-16T17:51:12.050Z,10.10
2023-04-16T17:56:14.468Z,10.77
2023-04-16T18:01:16.284Z,9.57
2023-04-16T18:06:19.623Z,9.77
2023-04-16T18:11:21.531Z,9.20
2023-04-16T18:16:23.318Z,10.13
2023-04-16T18:21:25.861Z,8.40
2023-04-16T18:26:29.994Z,9.53
2023-04-16T18:31:31.936Z,9.10
2023-04-16T18:36:34.268Z,10.33
2023-04-16T18:41:36.505Z,9.00
2023-04-16T18:46:38.286Z,10.37
2023-04-16T18:51:41.862Z,9.20
2023-04-16T18:56:43.698Z,8.80
2023-04-16T19:01:45.481Z,12.00
2023-04-16T19:06:48.391Z,11.30
2023-04-16T19:11:50.544Z,11.10
2023-04-16T19:16:52.445Z,10.07
2023-04-16T19:21:54.409Z,9.20
2023-04-16T19:26:56.151Z,10.60
2023-04-16T19:31:59.063Z,10.30
2023-04-16T19:37:00.857Z,9.90
2023-04-16T19:42:02.796Z,10.33
2023-04-16T19:47:06.410Z,8.70
2023-04-16T19:52:08.279Z,9.27
2023-04-16T19:57:10.062Z,9.40
2023-04-16T20:02:11.826Z,9.40
2023-04-16T20:07:13.715Z,8.50
2023-04-16T20:12:15.681Z,9.50
2023-04-16T20:17:20.050Z,11.60
2023-04-16T20:22:21.885Z,8.67
2023-04-16T20:27:23.856Z,8.50
2023-04-16T20:32:27.733Z,8.80
2023-04-16T20:37:29.745Z,8.40
2023-04-16T20:42:32.246Z,8.60
2023-04-16T20:47:34.926Z,8.80
2023-04-16T20:52:37.611Z,9.40
2023-04-16T20:57:39.495Z,8.77
2023-04-16T21:02:41.638Z,9.60
2023-04-16T21:07:43.719Z,9.17
2023-04-16T21:12:45.534Z,9.57
2023-04-16T21:17:47.396Z,8.93
2023-04-16T21:22:51.071Z,8.90
2023-04-16T21:27:53.076Z,9.67
2023-04-16T21:32:55.006Z,9.70
2023-04-16T21:37:56.856Z,8.90
2023-04-16T21:42:58.633Z,10.30
2023-04-16T21:48:00.468Z,10.63
2023-04-16T21:53:06.183Z,9.20
2023-04-16T21:58:07.964Z,10.30
2023-04-16T22:03:12.328Z,9.30
2023-04-16T22:08:24.254Z,9.63
2023-04-16T22:13:29.837Z,10.13
2023-04-16T22:18:32.945Z,11.37
2023-04-16T22:23:35.190Z,11.90
2023-04-16T22:28:36.935Z,10.90
2023-04-16T22:33:38.757Z,11.20
2023-04-16T22:38:40.555Z,11.70
2023-04-16T22:43:43.003Z,12.77
2023-04-16T22:48:44.794Z,11.60
2023-04-16T22:53:46.602Z,11.90
2023-04-16T22:58:51.082Z,11.77
2023-04-16T23:03:52.989Z,11.77
2023-04-16T23:08:54.922Z,11.73
2023-04-16T23:13:56.686Z,12.23
2023-04-16T23:18:58.418Z,12.23
2023-04-16T23:24:00.230Z,13.03
2023-04-16T23:29:02.105Z,11.73
2023-04-16T23:34:03.880Z,12.13
2023-04-16T23:39:05.677Z,12.40
2023-04-16T23:44:07.465Z,12.93
2023-04-16T23:49:09.332Z,13.23
2023-04-16T23:54:11.309Z,11.47
2023-04-16T23:59:13.424Z,11.30
